sensor_id;sensor_type;location;lat;lon;timestamp;P1;durP1;ratioP1;P2;durP2;ratioP2
57313;SDS011;53202;50.976;18.216;2023-10-08T00:00:38;6.60;;;2.30;;
57313;SDS011;53202;50.976;18.216;2023-10-08T00:01:47;7.40;;;2.00;;
57313;SDS011;53202;50.976;18.216;2023-10-08T00:02:48;4.40;;;1.70;;
57313;SDS011;53202;50.976;18.216;2023-10-08T00:03:49;4.00;;;1.40;;
57313;SDS011;53202;50.976;18.216;2023-10-08T00:04:51;9.90;;;1.50;;
57313;SDS011;53202;50.976;18.216;2023-10-08T00:05:52;3.30;;;1.50;;
57313;SDS011;53202;50.976;18.216;2023-10-08T00:06:53;3.80;;;1.30;;
57313;SDS011;53202;50.976;18.216;2023-10-08T00:07:54;1.80;;;1.10;;
57313;SDS011;53202;50.976;18.216;2023-10-08T00:08:56;4.10;;;1.20;;
57313;SDS011;53202;50.976;18.216;2023-10-08T00:10:12;7.90;;;1.40;;
57313;SDS011;53202;50.976;18.216;2023-10-08T00:11:13;5.60;;;1.20;;
57313;SDS011;53202;50.976;18.216;2023-10-08T00:12:16;6.50;;;1.70;;
57313;SDS011;53202;50.976;18.216;2023-10-08T00:13:17;3.30;;;1.10;;
57313;SDS011;53202;50.976;18.216;2023-10-08T00:14:18;6.00;;;2.40;;
57313;SDS011;53202;50.976;18.216;2023-10-08T00:15:21;4.30;;;2.20;;
57313;SDS011;53202;50.976;18.216;2023-10-08T00:16:26;3.10;;;1.30;;
57313;SDS011;53202;50.976;18.216;2023-10-08T00:17:28;3.30;;;0.80;;
57313;SDS011;53202;50.976;18.216;2023-10-08T00:18:29;4.30;;;1.60;;
57313;SDS011;53202;50.976;18.216;2023-10-08T00:19:30;5.50;;;1.00;;
57313;SDS011;53202;50.976;18.216;2023-10-08T00:20:36;3.40;;;1.30;;
57313;SDS011;53202;50.976;18.216;2023-10-08T00:21:47;1.80;;;1.00;;
57313;SDS011;53202;50.976;18.216;2023-10-08T00:22:49;4.90;;;1.10;;
57313;SDS011;53202;50.976;18.216;2023-10-08T00:23:50;4.50;;;1.80;;
57313;SDS011;53202;50.976;18.216;2023-10-08T00:24:53;7.60;;;2.10;;
57313;SDS011;53202;50.976;18.216;2023-10-08T00:25:58;5.10;;;1.70;;
57313;SDS011;53202;50.976;18.216;2023-10-08T00:27:04;5.20;;;3.10;;
57313;SDS011;53202;50.976;18.216;2023-10-08T00:28:08;9.70;;;3.50;;
57313;SDS011;53202;50.976;18.216;2023-10-08T00:29:12;4.20;;;1.60;;
57313;SDS011;53202;50.976;18.216;2023-10-08T00:30:16;6.20;;;3.40;;
57313;SDS011;53202;50.976;18.216;2023-10-08T00:31:18;6.20;;;2.40;;
57313;SDS011;53202;50.976;18.216;2023-10-08T00:32:19;6.80;;;3.00;;
57313;SDS011;53202;50.976;18.216;2023-10-08T00:33:22;4.10;;;2.10;;
57313;SDS011;53202;50.976;18.216;2023-10-08T00:34:23;3.00;;;1.70;;
57313;SDS011;53202;50.976;18.216;2023-10-08T00:35:25;4.50;;;1.60;;
57313;SDS011;53202;50.976;18.216;2023-10-08T00:36:26;6.30;;;2.50;;
57313;SDS011;53202;50.976;18.216;2023-10-08T00:37:27;5.90;;;2.60;;
57313;SDS011;53202;50.976;18.216;2023-10-08T00:38:29;6.80;;;2.50;;
57313;SDS011;53202;50.976;18.216;2023-10-08T00:39:32;5.70;;;3.20;;
57313;SDS011;53202;50.976;18.216;2023-10-08T00:40:38;4.40;;;1.90;;
57313;SDS011;53202;50.976;18.216;2023-10-08T00:41:40;6.00;;;2.10;;
57313;SDS011;53202;50.976;18.216;2023-10-08T00:42:42;8.50;;;2.80;;
57313;SDS011;53202;50.976;18.216;2023-10-08T00:43:46;6.70;;;1.80;;
57313;SDS011;53202;50.976;18.216;2023-10-08T00:44:47;4.60;;;1.60;;
57313;SDS011;53202;50.976;18.216;2023-10-08T00:45:51;4.60;;;2.20;;
57313;SDS011;53202;50.976;18.216;2023-10-08T00:46:52;4.80;;;2.80;;
57313;SDS011;53202;50.976;18.216;2023-10-08T00:47:56;6.90;;;2.40;;
57313;SDS011;53202;50.976;18.216;2023-10-08T00:48:58;5.40;;;3.20;;
57313;SDS011;53202;50.976;18.216;2023-10-08T00:50:11;6.00;;;2.10;;
57313;SDS011;53202;50.976;18.216;2023-10-08T00:51:21;3.40;;;1.50;;
57313;SDS011;53202;50.976;18.216;2023-10-08T00:53:27;4.80;;;2.00;;
57313;SDS011;53202;50.976;18.216;2023-10-08T00:54:28;10.00;;;4.50;;
57313;SDS011;53202;50.976;18.216;2023-10-08T00:55:29;11.00;;;3.10;;
57313;SDS011;53202;50.976;18.216;2023-10-08T00:56:30;5.80;;;2.30;;
57313;SDS011;53202;50.976;18.216;2023-10-08T00:57:43;6.60;;;2.50;;
57313;SDS011;53202;50.976;18.216;2023-10-08T00:58:48;9.00;;;1.80;;
57313;SDS011;53202;50.976;18.216;2023-10-08T00:59:53;7.70;;;2.60;;
57313;SDS011;53202;50.976;18.216;2023-10-08T01:00:56;2.50;;;2.00;;
57313;SDS011;53202;50.976;18.216;2023-10-08T01:01:59;9.80;;;3.50;;
57313;SDS011;53202;50.976;18.216;2023-10-08T01:03:06;4.90;;;2.50;;
57313;SDS011;53202;50.976;18.216;2023-10-08T01:04:16;4.90;;;1.90;;
57313;SDS011;53202;50.976;18.216;2023-10-08T01:05:17;4.20;;;1.50;;
57313;SDS011;53202;50.976;18.216;2023-10-08T01:06:19;4.10;;;1.50;;
57313;SDS011;53202;50.976;18.216;2023-10-08T01:07:20;8.00;;;2.20;;
57313;SDS011;53202;50.976;18.216;2023-10-08T01:08:22;6.50;;;1.80;;
57313;SDS011;53202;50.976;18.216;2023-10-08T01:09:35;5.20;;;1.50;;
57313;SDS011;53202;50.976;18.216;2023-10-08T01:10:35;6.20;;;1.60;;
57313;SDS011;53202;50.976;18.216;2023-10-08T01:11:36;5.70;;;1.50;;
57313;SDS011;53202;50.976;18.216;2023-10-08T01:12:47;6.40;;;1.60;;
57313;SDS011;53202;50.976;18.216;2023-10-08T01:14:05;4.20;;;1.50;;
57313;SDS011;53202;50.976;18.216;2023-10-08T01:15:08;6.50;;;1.80;;
57313;SDS011;53202;50.976;18.216;2023-10-08T01:16:25;5.60;;;2.20;;
57313;SDS011;53202;50.976;18.216;2023-10-08T01:17:27;6.10;;;1.50;;
57313;SDS011;53202;50.976;18.216;2023-10-08T01:18:32;6.00;;;1.70;;
57313;SDS011;53202;50.976;18.216;2023-10-08T01:19:35;6.90;;;1.50;;
57313;SDS011;53202;50.976;18.216;2023-10-08T01:20:41;5.60;;;1.40;;
57313;SDS011;53202;50.976;18.216;2023-10-08T01:21:53;8.80;;;1.60;;
57313;SDS011;53202;50.976;18.216;2023-10-08T01:22:54;7.00;;;2.70;;
57313;SDS011;53202;50.976;18.216;2023-10-08T01:23:57;5.50;;;2.30;;
57313;SDS011;53202;50.976;18.216;2023-10-08T01:25:00;8.10;;;3.30;;
57313;SDS011;53202;50.976;18.216;2023-10-08T01:26:02;8.90;;;3.90;;
57313;SDS011;53202;50.976;18.216;2023-10-08T01:27:11;10.40;;;3.00;;
57313;SDS011;53202;50.976;18.216;2023-10-08T01:28:12;13.00;;;3.10;;
57313;SDS011;53202;50.976;18.216;2023-10-08T01:29:27;7.90;;;3.00;;
57313;SDS011;53202;50.976;18.216;2023-10-08T01:30:28;5.70;;;2.50;;
57313;SDS011;53202;50.976;18.216;2023-10-08T01:31:35;8.40;;;2.60;;
57313;SDS011;53202;50.976;18.216;2023-10-08T01:32:37;6.50;;;3.00;;
57313;SDS011;53202;50.976;18.216;2023-10-08T01:33:37;9.10;;;2.70;;
57313;SDS011;53202;50.976;18.216;2023-10-08T01:34:39;4.10;;;2.70;;
57313;SDS011;53202;50.976;18.216;2023-10-08T01:35:40;13.50;;;3.20;;
57313;SDS011;53202;50.976;18.216;2023-10-08T01:36:41;6.20;;;2.60;;
57313;SDS011;53202;50.976;18.216;2023-10-08T01:37:45;11.50;;;3.30;;
57313;SDS011;53202;50.976;18.216;2023-10-08T01:38:48;5.00;;;2.20;;
57313;SDS011;53202;50.976;18.216;2023-10-08T01:39:49;9.70;;;2.10;;
57313;SDS011;53202;50.976;18.216;2023-10-08T01:40:51;5.00;;;2.40;;
57313;SDS011;53202;50.976;18.216;2023-10-08T01:41:51;4.10;;;2.10;;
57313;SDS011;53202;50.976;18.216;2023-10-08T01:42:52;8.80;;;2.40;;
57313;SDS011;53202;50.976;18.216;2023-10-08T01:43:53;4.40;;;1.90;;
57313;SDS011;53202;50.976;18.216;2023-10-08T01:44:54;5.90;;;2.50;;
57313;SDS011;53202;50.976;18.216;2023-10-08T01:45:56;9.90;;;1.70;;
57313;SDS011;53202;50.976;18.216;2023-10-08T01:46:56;5.80;;;1.50;;
57313;SDS011;53202;50.976;18.216;2023-10-08T01:47:59;8.70;;;2.50;;
57313;SDS011;53202;50.976;18.216;2023-10-08T01:49:00;5.30;;;2.50;;
57313;SDS011;53202;50.976;18.216;2023-10-08T01:50:05;4.70;;;2.40;;
57313;SDS011;53202;50.976;18.216;2023-10-08T01:51:18;7.40;;;1.80;;
57313;SDS011;53202;50.976;18.216;2023-10-08T01:52:25;13.40;;;3.40;;
57313;SDS011;53202;50.976;18.216;2023-10-08T01:53:25;12.60;;;2.70;;
57313;SDS011;53202;50.976;18.216;2023-10-08T01:54:27;7.00;;;1.50;;
57313;SDS011;53202;50.976;18.216;2023-10-08T01:55:27;8.10;;;2.10;;
57313;SDS011;53202;50.976;18.216;2023-10-08T01:56:34;5.60;;;2.60;;
57313;SDS011;53202;50.976;18.216;2023-10-08T01:57:35;11.00;;;1.90;;
57313;SDS011;53202;50.976;18.216;2023-10-08T01:58:37;9.90;;;3.50;;
57313;SDS011;53202;50.976;18.216;2023-10-08T01:59:38;11.70;;;3.40;;
57313;SDS011;53202;50.976;18.216;2023-10-08T02:00:41;3.70;;;1.90;;
57313;SDS011;53202;50.976;18.216;2023-10-08T02:01:43;13.50;;;3.20;;
57313;SDS011;53202;50.976;18.216;2023-10-08T02:02:44;8.10;;;2.20;;
57313;SDS011;53202;50.976;18.216;2023-10-08T02:03:45;17.90;;;2.50;;
57313;SDS011;53202;50.976;18.216;2023-10-08T02:04:45;9.50;;;2.20;;
57313;SDS011;53202;50.976;18.216;2023-10-08T02:05:47;16.00;;;2.50;;
57313;SDS011;53202;50.976;18.216;2023-10-08T02:06:48;7.90;;;2.00;;
57313;SDS011;53202;50.976;18.216;2023-10-08T02:07:48;11.20;;;2.30;;
57313;SDS011;53202;50.976;18.216;2023-10-08T02:08:49;8.00;;;1.70;;
57313;SDS011;53202;50.976;18.216;2023-10-08T02:09:50;14.60;;;2.20;;
57313;SDS011;53202;50.976;18.216;2023-10-08T02:10:51;7.50;;;1.60;;
57313;SDS011;53202;50.976;18.216;2023-10-08T02:11:53;7.30;;;1.50;;
57313;SDS011;53202;50.976;18.216;2023-10-08T02:12:54;7.70;;;2.00;;
57313;SDS011;53202;50.976;18.216;2023-10-08T02:13:55;13.60;;;2.20;;
57313;SDS011;53202;50.976;18.216;2023-10-08T02:14:57;6.40;;;1.80;;
57313;SDS011;53202;50.976;18.216;2023-10-08T02:15:57;6.80;;;2.30;;
57313;SDS011;53202;50.976;18.216;2023-10-08T02:16:58;4.90;;;2.00;;
57313;SDS011;53202;50.976;18.216;2023-10-08T02:18:01;12.50;;;2.40;;
57313;SDS011;53202;50.976;18.216;2023-10-08T02:19:03;13.60;;;2.40;;
57313;SDS011;53202;50.976;18.216;2023-10-08T02:20:04;13.80;;;1.80;;
57313;SDS011;53202;50.976;18.216;2023-10-08T02:21:05;10.90;;;2.20;;
57313;SDS011;53202;50.976;18.216;2023-10-08T02:22:06;8.10;;;1.40;;
57313;SDS011;53202;50.976;18.216;2023-10-08T02:23:10;5.80;;;1.50;;
57313;SDS011;53202;50.976;18.216;2023-10-08T02:24:12;6.80;;;2.00;;
57313;SDS011;53202;50.976;18.216;2023-10-08T02:25:13;11.10;;;2.30;;
57313;SDS011;53202;50.976;18.216;2023-10-08T02:26:14;11.00;;;2.20;;
57313;SDS011;53202;50.976;18.216;2023-10-08T02:27:16;12.00;;;2.30;;
57313;SDS011;53202;50.976;18.216;2023-10-08T02:28:17;12.20;;;2.10;;
57313;SDS011;53202;50.976;18.216;2023-10-08T02:29:26;4.40;;;1.50;;
57313;SDS011;53202;50.976;18.216;2023-10-08T02:30:26;9.90;;;1.60;;
57313;SDS011;53202;50.976;18.216;2023-10-08T02:31:27;8.40;;;1.70;;
57313;SDS011;53202;50.976;18.216;2023-10-08T02:32:28;6.80;;;2.00;;
57313;SDS011;53202;50.976;18.216;2023-10-08T02:33:29;8.50;;;1.70;;
57313;SDS011;53202;50.976;18.216;2023-10-08T02:34:30;9.10;;;1.20;;
57313;SDS011;53202;50.976;18.216;2023-10-08T02:35:31;10.50;;;1.50;;
57313;SDS011;53202;50.976;18.216;2023-10-08T02:36:32;7.80;;;1.60;;
57313;SDS011;53202;50.976;18.216;2023-10-08T02:37:33;7.30;;;1.70;;
57313;SDS011;53202;50.976;18.216;2023-10-08T02:38:35;5.70;;;1.40;;
57313;SDS011;53202;50.976;18.216;2023-10-08T02:39:38;4.80;;;1.40;;
57313;SDS011;53202;50.976;18.216;2023-10-08T02:40:40;7.20;;;1.50;;
57313;SDS011;53202;50.976;18.216;2023-10-08T02:41:49;8.70;;;1.60;;
57313;SDS011;53202;50.976;18.216;2023-10-08T02:42:49;9.70;;;1.60;;
57313;SDS011;53202;50.976;18.216;2023-10-08T02:43:50;11.20;;;2.20;;
57313;SDS011;53202;50.976;18.216;2023-10-08T02:44:51;6.20;;;1.80;;
57313;SDS011;53202;50.976;18.216;2023-10-08T02:45:53;15.70;;;3.20;;
57313;SDS011;53202;50.976;18.216;2023-10-08T02:46:56;6.00;;;2.60;;
57313;SDS011;53202;50.976;18.216;2023-10-08T02:47:56;10.10;;;2.50;;
57313;SDS011;53202;50.976;18.216;2023-10-08T02:48:57;12.80;;;2.30;;
57313;SDS011;53202;50.976;18.216;2023-10-08T02:49:58;9.00;;;1.80;;
57313;SDS011;53202;50.976;18.216;2023-10-08T02:50:59;12.30;;;1.90;;
57313;SDS011;53202;50.976;18.216;2023-10-08T02:52:08;10.00;;;1.60;;
57313;SDS011;53202;50.976;18.216;2023-10-08T02:53:10;7.70;;;1.30;;
57313;SDS011;53202;50.976;18.216;2023-10-08T02:54:11;9.40;;;1.60;;
57313;SDS011;53202;50.976;18.216;2023-10-08T02:55:18;5.00;;;1.30;;
57313;SDS011;53202;50.976;18.216;2023-10-08T02:56:28;3.40;;;1.30;;
57313;SDS011;53202;50.976;18.216;2023-10-08T02:57:32;2.60;;;0.90;;
57313;SDS011;53202;50.976;18.216;2023-10-08T02:58:33;8.00;;;1.20;;
57313;SDS011;53202;50.976;18.216;2023-10-08T02:59:36;12.00;;;2.00;;
57313;SDS011;53202;50.976;18.216;2023-10-08T03:00:42;6.20;;;1.90;;
57313;SDS011;53202;50.976;18.216;2023-10-08T03:01:43;6.10;;;1.30;;
57313;SDS011;53202;50.976;18.216;2023-10-08T03:02:45;7.10;;;1.80;;
57313;SDS011;53202;50.976;18.216;2023-10-08T03:03:46;11.70;;;2.00;;
57313;SDS011;53202;50.976;18.216;2023-10-08T03:04:49;7.00;;;2.00;;
57313;SDS011;53202;50.976;18.216;2023-10-08T03:05:52;8.70;;;2.00;;
57313;SDS011;53202;50.976;18.216;2023-10-08T03:06:57;6.00;;;1.90;;
57313;SDS011;53202;50.976;18.216;2023-10-08T03:07:57;4.00;;;1.50;;
57313;SDS011;53202;50.976;18.216;2023-10-08T03:08:58;5.00;;;1.70;;
57313;SDS011;53202;50.976;18.216;2023-10-08T03:10:05;6.90;;;1.40;;
57313;SDS011;53202;50.976;18.216;2023-10-08T03:11:08;6.40;;;1.50;;
57313;SDS011;53202;50.976;18.216;2023-10-08T03:12:17;10.80;;;1.50;;
57313;SDS011;53202;50.976;18.216;2023-10-08T03:13:17;5.10;;;1.40;;
57313;SDS011;53202;50.976;18.216;2023-10-08T03:14:20;8.00;;;1.60;;
57313;SDS011;53202;50.976;18.216;2023-10-08T03:15:23;5.80;;;1.70;;
57313;SDS011;53202;50.976;18.216;2023-10-08T03:16:39;8.30;;;1.50;;
57313;SDS011;53202;50.976;18.216;2023-10-08T03:17:41;10.00;;;1.40;;
57313;SDS011;53202;50.976;18.216;2023-10-08T03:18:49;2.50;;;1.00;;
57313;SDS011;53202;50.976;18.216;2023-10-08T03:19:50;11.10;;;1.80;;
57313;SDS011;53202;50.976;18.216;2023-10-08T03:20:52;9.00;;;2.10;;
57313;SDS011;53202;50.976;18.216;2023-10-08T03:21:53;6.50;;;1.70;;
57313;SDS011;53202;50.976;18.216;2023-10-08T03:22:57;4.50;;;1.20;;
57313;SDS011;53202;50.976;18.216;2023-10-08T03:23:59;16.50;;;1.70;;
57313;SDS011;53202;50.976;18.216;2023-10-08T03:25:02;4.40;;;1.50;;
57313;SDS011;53202;50.976;18.216;2023-10-08T03:26:16;14.30;;;2.00;;
57313;SDS011;53202;50.976;18.216;2023-10-08T03:27:33;10.00;;;1.40;;
57313;SDS011;53202;50.976;18.216;2023-10-08T03:28:41;4.60;;;1.60;;
57313;SDS011;53202;50.976;18.216;2023-10-08T03:29:42;12.20;;;1.50;;
57313;SDS011;53202;50.976;18.216;2023-10-08T03:30:43;6.80;;;2.10;;
57313;SDS011;53202;50.976;18.216;2023-10-08T03:31:51;11.80;;;1.40;;
57313;SDS011;53202;50.976;18.216;2023-10-08T03:32:52;5.00;;;1.00;;
57313;SDS011;53202;50.976;18.216;2023-10-08T03:33:56;13.80;;;1.80;;
57313;SDS011;53202;50.976;18.216;2023-10-08T03:34:57;8.90;;;1.40;;
57313;SDS011;53202;50.976;18.216;2023-10-08T03:36:00;7.10;;;1.20;;
57313;SDS011;53202;50.976;18.216;2023-10-08T03:37:04;4.50;;;1.50;;
57313;SDS011;53202;50.976;18.216;2023-10-08T03:38:06;7.00;;;1.80;;
57313;SDS011;53202;50.976;18.216;2023-10-08T03:39:26;7.30;;;1.70;;
57313;SDS011;53202;50.976;18.216;2023-10-08T03:40:47;12.10;;;2.20;;
57313;SDS011;53202;50.976;18.216;2023-10-08T03:41:50;7.00;;;1.30;;
57313;SDS011;53202;50.976;18.216;2023-10-08T03:42:59;9.10;;;2.10;;
57313;SDS011;53202;50.976;18.216;2023-10-08T03:44:00;9.80;;;1.60;;
57313;SDS011;53202;50.976;18.216;2023-10-08T03:45:02;17.00;;;1.80;;
57313;SDS011;53202;50.976;18.216;2023-10-08T03:46:10;5.80;;;1.30;;
57313;SDS011;53202;50.976;18.216;2023-10-08T03:47:15;7.00;;;1.60;;
57313;SDS011;53202;50.976;18.216;2023-10-08T03:48:19;15.50;;;2.10;;
57313;SDS011;53202;50.976;18.216;2023-10-08T03:49:22;5.90;;;1.20;;
57313;SDS011;53202;50.976;18.216;2023-10-08T03:50:25;12.90;;;2.60;;
57313;SDS011;53202;50.976;18.216;2023-10-08T03:51:33;6.70;;;1.50;;
57313;SDS011;53202;50.976;18.216;2023-10-08T03:52:40;13.30;;;2.00;;
57313;SDS011;53202;50.976;18.216;2023-10-08T03:53:43;6.20;;;1.10;;
57313;SDS011;53202;50.976;18.216;2023-10-08T03:54:59;12.20;;;1.60;;
57313;SDS011;53202;50.976;18.216;2023-10-08T03:56:14;10.00;;;1.20;;
57313;SDS011;53202;50.976;18.216;2023-10-08T03:57:14;10.90;;;1.40;;
57313;SDS011;53202;50.976;18.216;2023-10-08T03:58:25;7.30;;;1.80;;
57313;SDS011;53202;50.976;18.216;2023-10-08T03:59:38;6.00;;;1.80;;
57313;SDS011;53202;50.976;18.216;2023-10-08T04:00:42;7.60;;;1.40;;
57313;SDS011;53202;50.976;18.216;2023-10-08T04:01:46;6.30;;;1.50;;
57313;SDS011;53202;50.976;18.216;2023-10-08T04:02:49;9.60;;;2.10;;
57313;SDS011;53202;50.976;18.216;2023-10-08T04:04:01;9.90;;;2.00;;
57313;SDS011;53202;50.976;18.216;2023-10-08T04:05:02;11.60;;;2.10;;
57313;SDS011;53202;50.976;18.216;2023-10-08T04:06:19;10.10;;;1.60;;
57313;SDS011;53202;50.976;18.216;2023-10-08T04:07:30;12.30;;;1.70;;
57313;SDS011;53202;50.976;18.216;2023-10-08T04:08:42;6.10;;;2.20;;
57313;SDS011;53202;50.976;18.216;2023-10-08T04:10:00;11.20;;;1.70;;
57313;SDS011;53202;50.976;18.216;2023-10-08T04:11:21;10.90;;;2.30;;
57313;SDS011;53202;50.976;18.216;2023-10-08T04:12:31;11.70;;;2.70;;
57313;SDS011;53202;50.976;18.216;2023-10-08T04:13:35;9.40;;;2.00;;
57313;SDS011;53202;50.976;18.216;2023-10-08T04:14:45;6.90;;;2.00;;
57313;SDS011;53202;50.976;18.216;2023-10-08T04:15:46;10.40;;;2.00;;
57313;SDS011;53202;50.976;18.216;2023-10-08T04:16:47;7.60;;;1.80;;
57313;SDS011;53202;50.976;18.216;2023-10-08T04:17:51;10.40;;;2.00;;
57313;SDS011;53202;50.976;18.216;2023-10-08T04:18:52;6.70;;;2.00;;
57313;SDS011;53202;50.976;18.216;2023-10-08T04:19:55;8.10;;;2.20;;
57313;SDS011;53202;50.976;18.216;2023-10-08T04:20:58;5.20;;;1.40;;
57313;SDS011;53202;50.976;18.216;2023-10-08T04:22:05;7.60;;;1.90;;
57313;SDS011;53202;50.976;18.216;2023-10-08T04:23:15;7.80;;;2.00;;
57313;SDS011;53202;50.976;18.216;2023-10-08T04:24:22;5.50;;;1.80;;
57313;SDS011;53202;50.976;18.216;2023-10-08T04:25:29;9.90;;;2.50;;
57313;SDS011;53202;50.976;18.216;2023-10-08T04:26:30;13.20;;;2.60;;
57313;SDS011;53202;50.976;18.216;2023-10-08T04:27:33;7.80;;;1.30;;
57313;SDS011;53202;50.976;18.216;2023-10-08T04:28:34;8.40;;;2.00;;
57313;SDS011;53202;50.976;18.216;2023-10-08T04:29:35;8.80;;;1.60;;
57313;SDS011;53202;50.976;18.216;2023-10-08T04:30:38;7.60;;;1.80;;
57313;SDS011;53202;50.976;18.216;2023-10-08T04:31:41;7.50;;;2.00;;
57313;SDS011;53202;50.976;18.216;2023-10-08T04:32:47;10.60;;;1.80;;
57313;SDS011;53202;50.976;18.216;2023-10-08T04:33:52;8.10;;;2.10;;
57313;SDS011;53202;50.976;18.216;2023-10-08T04:34:52;8.40;;;1.90;;
57313;SDS011;53202;50.976;18.216;2023-10-08T04:35:56;10.80;;;2.10;;
57313;SDS011;53202;50.976;18.216;2023-10-08T04:37:02;9.10;;;2.30;;
57313;SDS011;53202;50.976;18.216;2023-10-08T04:38:04;7.20;;;1.80;;
57313;SDS011;53202;50.976;18.216;2023-10-08T04:39:09;9.50;;;2.50;;
57313;SDS011;53202;50.976;18.216;2023-10-08T04:40:21;5.00;;;2.40;;
57313;SDS011;53202;50.976;18.216;2023-10-08T04:41:24;14.80;;;3.90;;
57313;SDS011;53202;50.976;18.216;2023-10-08T04:42:28;9.60;;;3.40;;
57313;SDS011;53202;50.976;18.216;2023-10-08T04:43:29;9.10;;;3.30;;
57313;SDS011;53202;50.976;18.216;2023-10-08T04:44:31;11.20;;;3.90;;
57313;SDS011;53202;50.976;18.216;2023-10-08T04:45:32;8.40;;;2.70;;
57313;SDS011;53202;50.976;18.216;2023-10-08T04:46:34;8.80;;;3.00;;
57313;SDS011;53202;50.976;18.216;2023-10-08T04:47:47;10.50;;;2.70;;
57313;SDS011;53202;50.976;18.216;2023-10-08T04:48:49;4.90;;;1.90;;
57313;SDS011;53202;50.976;18.216;2023-10-08T04:49:51;10.70;;;2.10;;
57313;SDS011;53202;50.976;18.216;2023-10-08T04:50:53;8.10;;;2.30;;
57313;SDS011;53202;50.976;18.216;2023-10-08T04:52:02;10.80;;;2.30;;
57313;SDS011;53202;50.976;18.216;2023-10-08T04:53:20;7.70;;;2.80;;
57313;SDS011;53202;50.976;18.216;2023-10-08T04:54:28;9.00;;;2.40;;
57313;SDS011;53202;50.976;18.216;2023-10-08T04:55:30;8.30;;;2.30;;
57313;SDS011;53202;50.976;18.216;2023-10-08T04:56:31;5.20;;;1.80;;
57313;SDS011;53202;50.976;18.216;2023-10-08T04:57:33;10.90;;;1.90;;
57313;SDS011;53202;50.976;18.216;2023-10-08T04:58:35;17.80;;;2.10;;
57313;SDS011;53202;50.976;18.216;2023-10-08T04:59:37;6.20;;;1.40;;
57313;SDS011;53202;50.976;18.216;2023-10-08T05:00:38;6.90;;;1.70;;
57313;SDS011;53202;50.976;18.216;2023-10-08T05:01:54;7.80;;;2.50;;
57313;SDS011;53202;50.976;18.216;2023-10-08T05:03:11;12.90;;;2.40;;
57313;SDS011;53202;50.976;18.216;2023-10-08T05:04:16;7.80;;;2.50;;
57313;SDS011;53202;50.976;18.216;2023-10-08T05:05:25;10.10;;;2.00;;
57313;SDS011;53202;50.976;18.216;2023-10-08T05:06:30;10.50;;;2.00;;
57313;SDS011;53202;50.976;18.216;2023-10-08T05:07:50;8.40;;;2.30;;
57313;SDS011;53202;50.976;18.216;2023-10-08T05:09:01;10.10;;;2.40;;
57313;SDS011;53202;50.976;18.216;2023-10-08T05:10:22;5.60;;;2.00;;
57313;SDS011;53202;50.976;18.216;2023-10-08T05:11:42;6.20;;;1.70;;
57313;SDS011;53202;50.976;18.216;2023-10-08T05:12:57;15.70;;;2.80;;
57313;SDS011;53202;50.976;18.216;2023-10-08T05:14:18;14.70;;;2.50;;
57313;SDS011;53202;50.976;18.216;2023-10-08T05:15:32;12.50;;;3.40;;
57313;SDS011;53202;50.976;18.216;2023-10-08T05:16:34;6.90;;;2.50;;
57313;SDS011;53202;50.976;18.216;2023-10-08T05:17:45;9.80;;;2.60;;
57313;SDS011;53202;50.976;18.216;2023-10-08T05:18:58;9.00;;;2.90;;
57313;SDS011;53202;50.976;18.216;2023-10-08T05:20:13;5.70;;;2.20;;
57313;SDS011;53202;50.976;18.216;2023-10-08T05:21:33;4.60;;;1.90;;
57313;SDS011;53202;50.976;18.216;2023-10-08T05:22:51;8.20;;;2.00;;
57313;SDS011;53202;50.976;18.216;2023-10-08T05:24:03;7.40;;;2.60;;
57313;SDS011;53202;50.976;18.216;2023-10-08T05:25:13;5.50;;;2.10;;
57313;SDS011;53202;50.976;18.216;2023-10-08T05:26:32;5.00;;;2.20;;
57313;SDS011;53202;50.976;18.216;2023-10-08T05:27:43;8.10;;;2.70;;
57313;SDS011;53202;50.976;18.216;2023-10-08T05:29:03;11.10;;;1.70;;
57313;SDS011;53202;50.976;18.216;2023-10-08T05:30:25;6.90;;;2.50;;
57313;SDS011;53202;50.976;18.216;2023-10-08T05:31:32;5.80;;;2.30;;
57313;SDS011;53202;50.976;18.216;2023-10-08T05:32:44;14.80;;;3.70;;
57313;SDS011;53202;50.976;18.216;2023-10-08T05:34:04;6.80;;;2.10;;
57313;SDS011;53202;50.976;18.216;2023-10-08T05:35:25;15.80;;;3.10;;
57313;SDS011;53202;50.976;18.216;2023-10-08T05:36:45;6.70;;;1.60;;
57313;SDS011;53202;50.976;18.216;2023-10-08T05:38:04;3.20;;;1.50;;
57313;SDS011;53202;50.976;18.216;2023-10-08T05:39:24;11.60;;;2.60;;
57313;SDS011;53202;50.976;18.216;2023-10-08T05:40:29;7.80;;;1.90;;
57313;SDS011;53202;50.976;18.216;2023-10-08T05:41:50;5.40;;;1.50;;
57313;SDS011;53202;50.976;18.216;2023-10-08T05:42:52;7.30;;;1.40;;
57313;SDS011;53202;50.976;18.216;2023-10-08T05:44:01;9.10;;;1.90;;
57313;SDS011;53202;50.976;18.216;2023-10-08T05:45:15;6.40;;;2.00;;
57313;SDS011;53202;50.976;18.216;2023-10-08T05:46:29;5.10;;;2.30;;
57313;SDS011;53202;50.976;18.216;2023-10-08T05:47:47;8.90;;;2.80;;
57313;SDS011;53202;50.976;18.216;2023-10-08T05:49:07;5.30;;;1.70;;
57313;SDS011;53202;50.976;18.216;2023-10-08T05:50:26;2.80;;;1.40;;
57313;SDS011;53202;50.976;18.216;2023-10-08T05:51:40;3.40;;;1.00;;
57313;SDS011;53202;50.976;18.216;2023-10-08T05:53:01;8.40;;;2.30;;
57313;SDS011;53202;50.976;18.216;2023-10-08T05:54:02;10.60;;;2.20;;
57313;SDS011;53202;50.976;18.216;2023-10-08T05:55:11;6.50;;;1.80;;
57313;SDS011;53202;50.976;18.216;2023-10-08T05:56:22;6.30;;;1.90;;
57313;SDS011;53202;50.976;18.216;2023-10-08T05:57:42;6.90;;;1.90;;
57313;SDS011;53202;50.976;18.216;2023-10-08T05:58:47;10.10;;;2.80;;
57313;SDS011;53202;50.976;18.216;2023-10-08T06:00:00;10.10;;;2.70;;
57313;SDS011;53202;50.976;18.216;2023-10-08T06:01:21;13.50;;;3.40;;
57313;SDS011;53202;50.976;18.216;2023-10-08T06:02:37;7.20;;;2.70;;
57313;SDS011;53202;50.976;18.216;2023-10-08T06:03:58;13.40;;;5.80;;
57313;SDS011;53202;50.976;18.216;2023-10-08T06:05:18;12.50;;;6.10;;
57313;SDS011;53202;50.976;18.216;2023-10-08T06:06:23;11.40;;;5.20;;
57313;SDS011;53202;50.976;18.216;2023-10-08T06:07:26;20.60;;;7.70;;
57313;SDS011;53202;50.976;18.216;2023-10-08T06:08:33;19.80;;;9.50;;
57313;SDS011;53202;50.976;18.216;2023-10-08T06:09:48;14.20;;;8.00;;
57313;SDS011;53202;50.976;18.216;2023-10-08T06:12:17;11.90;;;6.00;;
57313;SDS011;53202;50.976;18.216;2023-10-08T06:13:30;11.30;;;6.90;;
57313;SDS011;53202;50.976;18.216;2023-10-08T06:14:45;12.50;;;6.10;;
57313;SDS011;53202;50.976;18.216;2023-10-08T06:16:06;17.50;;;7.00;;
57313;SDS011;53202;50.976;18.216;2023-10-08T06:17:08;11.50;;;7.00;;
57313;SDS011;53202;50.976;18.216;2023-10-08T06:18:29;10.10;;;6.50;;
57313;SDS011;53202;50.976;18.216;2023-10-08T06:19:30;13.60;;;6.50;;
57313;SDS011;53202;50.976;18.216;2023-10-08T06:20:33;12.80;;;6.70;;
57313;SDS011;53202;50.976;18.216;2023-10-08T06:21:35;12.30;;;6.90;;
57313;SDS011;53202;50.976;18.216;2023-10-08T06:22:38;18.00;;;6.90;;
57313;SDS011;53202;50.976;18.216;2023-10-08T06:23:39;15.10;;;5.70;;
57313;SDS011;53202;50.976;18.216;2023-10-08T06:24:42;15.50;;;5.60;;
57313;SDS011;53202;50.976;18.216;2023-10-08T06:25:44;21.10;;;6.20;;
57313;SDS011;53202;50.976;18.216;2023-10-08T06:26:45;9.20;;;5.50;;
57313;SDS011;53202;50.976;18.216;2023-10-08T06:27:50;20.40;;;6.00;;
57313;SDS011;53202;50.976;18.216;2023-10-08T06:28:55;14.20;;;6.10;;
57313;SDS011;53202;50.976;18.216;2023-10-08T06:29:59;13.10;;;5.90;;
57313;SDS011;53202;50.976;18.216;2023-10-08T06:30:59;9.20;;;5.10;;